createdAt,value
2022-11-16T00:02:14.337Z,15.80
2022-11-16T00:04:42.198Z,13.88
2022-11-16T00:07:09.947Z,14.43
2022-11-16T00:09:38.070Z,13.05
2022-11-16T00:12:09.724Z,15.77
2022-11-16T00:14:37.663Z,16.30
2022-11-16T00:17:05.381Z,16.45
2022-11-16T00:19:33.104Z,14.85
2022-11-16T00:22:00.807Z,14.90
2022-11-16T00:24:30.563Z,13.70
2022-11-16T00:26:58.222Z,13.38
2022-11-16T00:29:27.173Z,16.27
2022-11-16T00:31:55.602Z,13.27
2022-11-16T00:34:24.822Z,15.32
2022-11-16T00:36:52.543Z,13.93
2022-11-16T00:39:20.991Z,13.95
2022-11-16T00:41:49.419Z,11.27
2022-11-16T00:44:18.966Z,13.23
2022-11-16T00:46:47.420Z,13.57
2022-11-16T00:49:15.443Z,13.57
2022-11-16T00:51:43.556Z,12.60
2022-11-16T00:54:12.073Z,11.57
2022-11-16T00:56:40.517Z,12.35
2022-11-16T00:59:08.510Z,14.35
2022-11-16T01:01:36.373Z,14.48
2022-11-16T01:04:04.302Z,14.23
2022-11-16T01:06:32.171Z,13.68
2022-11-16T01:09:02.295Z,14.45
2022-11-16T01:11:48.800Z,11.10
2022-11-16T01:14:16.693Z,13.05
2022-11-16T01:16:44.637Z,13.50
2022-11-16T01:19:12.369Z,12.23
2022-11-16T01:21:40.093Z,12.68
2022-11-16T01:24:07.952Z,12.20
2022-11-16T01:26:35.790Z,13.27
2022-11-16T01:29:03.889Z,12.25
2022-11-16T01:31:35.970Z,11.32
2022-11-16T01:34:04.825Z,13.60
2022-11-16T01:36:33.305Z,13.05
2022-11-16T01:39:04.702Z,15.10
2022-11-16T01:41:43.486Z,13.00
2022-11-16T01:44:15.128Z,12.87
2022-11-16T01:46:52.399Z,16.15
2022-11-16T01:49:24.132Z,13.15
2022-11-16T01:52:00.326Z,14.48
2022-11-16T01:54:31.154Z,13.40
2022-11-16T01:57:05.617Z,15.05
2022-11-16T01:59:55.669Z,12.63
2022-11-16T02:02:25.415Z,16.08
2022-11-16T02:04:55.140Z,13.43
2022-11-16T02:13:42.334Z,14.50
2022-11-16T02:17:01.585Z,15.93
2022-11-16T02:19:55.391Z,13.47
2022-11-16T02:22:37.223Z,18.23
2022-11-16T02:25:33.806Z,14.65
2022-11-16T02:28:36.440Z,14.25
2022-11-16T02:31:08.174Z,15.25
2022-11-16T02:33:41.985Z,13.93
2022-11-16T02:36:14.850Z,12.93
2022-11-16T02:38:50.126Z,14.50
2022-11-16T02:41:21.225Z,14.70
2022-11-16T02:43:59.494Z,15.00
2022-11-16T02:46:36.438Z,11.18
2022-11-16T02:49:12.807Z,12.93
2022-11-16T02:51:42.633Z,12.15
2022-11-16T02:54:24.810Z,14.45
2022-11-16T02:57:24.815Z,11.45
2022-11-16T02:59:57.513Z,9.50
2022-11-16T03:03:00.325Z,11.32
2022-11-16T03:05:37.953Z,11.38
2022-11-16T03:08:15.977Z,10.07
2022-11-16T03:11:09.346Z,10.57
2022-11-16T03:13:38.840Z,11.23
2022-11-16T03:16:30.660Z,12.95
2022-11-16T03:19:02.914Z,12.90
2022-11-16T03:21:33.779Z,12.85
2022-11-16T03:24:03.511Z,12.68
2022-11-16T03:26:45.585Z,12.30
2022-11-16T03:29:40.821Z,12.35
2022-11-16T03:32:21.193Z,13.20
2022-11-16T03:34:59.292Z,13.05
2022-11-16T03:37:29.972Z,12.10
2022-11-16T03:40:01.969Z,13.30
2022-11-16T03:42:33.625Z,12.07
2022-11-16T03:45:03.371Z,10.82
2022-11-16T03:47:34.493Z,9.30
2022-11-16T03:50:04.605Z,13.27
2022-11-16T03:52:33.041Z,11.73
2022-11-16T03:55:00.942Z,10.48
2022-11-16T03:57:28.815Z,11.00
2022-11-16T03:59:59.738Z,9.93
2022-11-16T04:02:27.573Z,8.35
2022-11-16T04:05:16.005Z,10.50
2022-11-16T04:08:03.287Z,10.57
2022-11-16T04:10:49.602Z,11.25
2022-11-16T04:13:46.337Z,13.48
2022-11-16T04:16:38.831Z,9.65
2022-11-16T04:19:28.367Z,9.77
2022-11-16T04:22:25.354Z,9.68
2022-11-16T04:25:03.286Z,6.40
2022-11-16T04:27:52.747Z,8.20
2022-11-16T04:30:20.777Z,6.38
2022-11-16T04:33:07.933Z,5.95
2022-11-16T04:35:54.768Z,7.15
2022-11-16T04:38:22.905Z,6.30
2022-11-16T04:40:50.842Z,8.45
2022-11-16T04:43:18.578Z,5.82
2022-11-16T04:46:05.205Z,6.22
2022-11-16T04:48:40.397Z,6.25
2022-11-16T04:51:09.470Z,5.50
2022-11-16T04:53:37.494Z,7.47
2022-11-16T04:56:14.377Z,5.32
2022-11-16T04:58:42.521Z,7.80
2022-11-16T05:01:14.319Z,6.80
2022-11-16T05:03:43.324Z,6.75
2022-11-16T05:06:11.514Z,9.70
2022-11-16T05:08:39.661Z,9.48
2022-11-16T05:11:07.308Z,8.48
2022-11-16T05:13:35.150Z,10.15
2022-11-16T05:16:03.460Z,9.32
2022-11-16T05:18:32.365Z,10.00
2022-11-16T05:21:03.032Z,9.45
2022-11-16T05:23:58.141Z,6.95
2022-11-16T05:26:30.565Z,6.68
2022-11-16T05:28:58.722Z,8.68
2022-11-16T05:31:27.107Z,6.20
2022-11-16T05:33:55.761Z,7.45
2022-11-16T05:36:23.745Z,10.52
2022-11-16T05:38:56.130Z,10.00
2022-11-16T05:41:26.826Z,8.45
2022-11-16T05:43:55.808Z,6.28
2022-11-16T05:46:24.412Z,8.93
2022-11-16T05:48:52.595Z,7.72
2022-11-16T05:51:20.996Z,7.35
2022-11-16T05:53:51.480Z,5.55
2022-11-16T05:56:22.960Z,5.18
2022-11-16T05:58:53.726Z,4.25
2022-11-16T06:01:22.138Z,5.38
2022-11-16T06:03:51.928Z,4.35
2022-11-16T06:06:20.553Z,5.90
2022-11-16T06:08:49.741Z,5.35
2022-11-16T06:11:22.123Z,5.30
2022-11-16T06:13:50.312Z,4.45
2022-11-16T06:16:18.557Z,4.80
2022-11-16T06:18:50.379Z,4.82
2022-11-16T06:21:20.476Z,4.75
2022-11-16T06:23:48.805Z,3.83
2022-11-16T06:26:17.751Z,5.03
2022-11-16T06:28:46.857Z,4.70
2022-11-16T06:31:15.057Z,4.38
2022-11-16T06:33:43.319Z,3.65
2022-11-16T06:36:19.653Z,3.35
2022-11-16T06:38:48.059Z,3.30
2022-11-16T06:41:17.055Z,3.17
2022-11-16T06:43:48.743Z,5.28
2022-11-16T06:46:19.445Z,3.10
2022-11-16T06:48:48.174Z,3.58
2022-11-16T06:51:16.300Z,3.63
2022-11-16T06:53:44.082Z,3.80
2022-11-16T06:56:15.505Z,5.40
2022-11-16T06:58:52.998Z,3.40
2022-11-16T07:01:21.909Z,4.73
2022-11-16T07:03:50.847Z,3.72
2022-11-16T07:06:19.543Z,4.78
2022-11-16T07:08:47.370Z,3.70
2022-11-16T07:11:20.404Z,4.85
2022-11-16T07:13:51.206Z,4.20
2022-11-16T07:16:18.961Z,4.35
2022-11-16T07:18:53.384Z,5.70
2022-11-16T07:21:21.614Z,4.68
2022-11-16T07:23:49.404Z,6.65
2022-11-16T07:26:21.080Z,5.93
2022-11-16T07:28:58.855Z,5.35
2022-11-16T07:31:27.073Z,5.30
2022-11-16T07:34:27.042Z,4.70
2022-11-16T07:37:07.675Z,4.22
2022-11-16T07:39:35.390Z,3.58
2022-11-16T07:42:11.579Z,4.40
2022-11-16T07:45:12.319Z,5.18
2022-11-16T07:47:48.306Z,4.28
2022-11-16T07:50:23.828Z,3.50
2022-11-16T07:52:55.566Z,4.07
2022-11-16T07:55:25.775Z,4.55
2022-11-16T07:57:54.164Z,5.78
2022-11-16T08:00:24.644Z,4.93
2022-11-16T08:03:00.250Z,6.72
2022-11-16T08:05:28.225Z,4.90
2022-11-16T08:07:56.001Z,5.05
2022-11-16T08:10:25.998Z,5.18
2022-11-16T08:12:55.748Z,5.35
2022-11-16T08:15:29.558Z,5.47
2022-11-16T08:17:58.990Z,6.80
2022-11-16T08:20:28.868Z,5.72
2022-11-16T08:23:01.177Z,5.07
2022-11-16T08:25:32.524Z,6.32
2022-11-16T08:28:00.408Z,5.82
2022-11-16T08:30:28.801Z,5.63
2022-11-16T08:32:56.696Z,4.93
2022-11-16T08:35:24.504Z,7.57
2022-11-16T08:37:52.446Z,7.40
2022-11-16T08:40:20.308Z,8.13
2022-11-16T08:42:49.082Z,8.35
2022-11-16T08:45:17.931Z,7.68
2022-11-16T08:47:46.450Z,6.93
2022-11-16T08:50:14.357Z,6.53
2022-11-16T08:52:42.444Z,5.30
2022-11-16T08:55:14.025Z,5.38
2022-11-16T08:57:43.301Z,5.78
2022-11-16T09:00:13.488Z,7.13
2022-11-16T09:02:41.248Z,6.18
2022-11-16T09:05:11.973Z,6.75
2022-11-16T09:07:40.870Z,6.05
2022-11-16T09:10:09.089Z,7.35
2022-11-16T09:12:37.414Z,7.28
2022-11-16T09:15:06.574Z,8.02
2022-11-16T09:17:34.414Z,8.55
2022-11-16T09:20:02.182Z,7.13
2022-11-16T09:22:29.988Z,7.38
2022-11-16T09:24:57.684Z,7.15
2022-11-16T09:27:25.398Z,6.80
2022-11-16T09:29:53.144Z,7.00
2022-11-16T09:32:20.887Z,6.03
2022-11-16T09:34:48.625Z,6.97
2022-11-16T09:37:16.328Z,7.07
2022-11-16T09:39:44.044Z,7.20
2022-11-16T09:42:40.947Z,8.25
2022-11-16T09:45:31.822Z,7.30
2022-11-16T09:48:06.238Z,6.10
2022-11-16T09:50:36.644Z,6.47
2022-11-16T09:53:18.766Z,7.57
2022-11-16T09:55:52.954Z,7.78
2022-11-16T10:01:05.766Z,9.77
2022-11-16T10:03:41.341Z,6.57
2022-11-16T10:06:21.422Z,7.47
2022-11-16T10:08:56.757Z,8.63
2022-11-16T10:11:42.904Z,4.25
2022-11-16T10:14:35.870Z,6.43
2022-11-16T10:17:17.709Z,5.45
2022-11-16T10:20:30.461Z,8.60
2022-11-16T10:23:29.876Z,7.55
2022-11-16T10:26:07.158Z,6.55
2022-11-16T10:28:49.959Z,6.03
2022-11-16T10:31:44.092Z,7.28
2022-11-16T10:34:24.079Z,5.72
2022-11-16T10:36:57.988Z,6.32
2022-11-16T10:39:27.623Z,6.35
2022-11-16T10:41:56.832Z,6.53
2022-11-16T10:44:38.914Z,6.65
2022-11-16T10:47:16.705Z,5.20
2022-11-16T10:50:17.072Z,6.03
2022-11-16T10:52:44.803Z,8.15
2022-11-16T10:55:16.351Z,6.13
2022-11-16T10:58:04.281Z,6.30
2022-11-16T11:00:42.409Z,5.75
2022-11-16T11:03:12.074Z,5.88
2022-11-16T11:05:58.692Z,8.63
2022-11-16T11:08:32.915Z,6.82
2022-11-16T11:11:24.557Z,5.85
2022-11-16T11:14:11.108Z,6.03
2022-11-16T11:16:41.556Z,6.20
2022-11-16T11:19:19.588Z,6.07
2022-11-16T11:21:47.715Z,6.00
2022-11-16T11:24:43.485Z,6.85
2022-11-16T11:27:06.965Z,5.70
2022-11-16T11:29:40.866Z,6.88
2022-11-16T11:32:20.734Z,6.97
2022-11-16T11:34:53.982Z,8.57
2022-11-16T11:37:34.685Z,8.35
2022-11-16T11:40:25.856Z,9.30
2022-11-16T11:43:01.977Z,7.60
2022-11-16T11:45:53.624Z,6.25
2022-11-16T11:48:56.917Z,7.78
2022-11-16T11:51:33.630Z,7.57
2022-11-16T11:54:03.776Z,7.70
2022-11-16T11:56:34.265Z,7.70
2022-11-16T11:59:04.966Z,7.47
2022-11-16T12:01:43.505Z,6.72
2022-11-16T12:04:32.063Z,8.80
2022-11-16T12:06:59.858Z,6.75
2022-11-16T12:09:40.813Z,8.55
2022-11-16T12:12:30.038Z,9.43
2022-11-16T12:15:28.251Z,7.47
2022-11-16T12:18:11.130Z,6.72
2022-11-16T12:20:47.931Z,5.57
2022-11-16T12:23:24.669Z,6.25
2022-11-16T12:25:59.106Z,7.25
2022-11-16T12:28:54.402Z,5.85
2022-11-16T12:31:57.637Z,5.88
2022-11-16T12:34:58.196Z,5.85
2022-11-16T12:37:36.025Z,7.43
2022-11-16T12:40:31.953Z,5.32
2022-11-16T12:43:21.316Z,7.68
2022-11-16T12:46:17.558Z,7.45
2022-11-16T12:49:17.353Z,9.63
2022-11-16T12:51:56.826Z,7.65
2022-11-16T12:55:19.211Z,8.35
2022-11-16T12:58:06.963Z,7.28
2022-11-16T13:01:05.221Z,6.00
2022-11-16T13:03:40.680Z,7.03
2022-11-16T13:06:13.790Z,8.20
2022-11-16T13:08:57.242Z,7.05
2022-11-16T13:11:38.420Z,6.78
2022-11-16T13:14:17.209Z,5.47
2022-11-16T13:16:46.659Z,7.10
2022-11-16T13:19:17.301Z,7.88
2022-11-16T13:21:52.412Z,11.35
2022-11-16T13:24:23.242Z,10.52
2022-11-16T13:27:09.512Z,9.52
2022-11-16T13:30:05.222Z,8.55
2022-11-16T13:32:43.529Z,10.15
2022-11-16T13:35:16.680Z,9.93
2022-11-16T13:37:49.893Z,9.98
2022-11-16T13:40:28.515Z,10.93
2022-11-16T13:43:11.017Z,10.57
2022-11-16T13:45:51.393Z,8.80
2022-11-16T13:48:24.308Z,9.90
2022-11-16T13:50:56.382Z,8.25
2022-11-16T13:57:03.257Z,7.60
2022-11-16T13:59:35.164Z,7.00
2022-11-16T14:02:32.489Z,8.95
2022-11-16T14:05:13.345Z,7.68
2022-11-16T14:07:50.497Z,7.30
2022-11-16T14:10:34.062Z,10.30
2022-11-16T14:13:04.606Z,8.30
2022-11-16T14:15:35.493Z,6.72
2022-11-16T14:18:12.402Z,7.13
2022-11-16T14:21:32.271Z,7.80
2022-11-16T14:24:11.242Z,6.97
2022-11-16T14:27:17.900Z,9.27
2022-11-16T14:30:13.720Z,8.93
2022-11-16T14:32:47.562Z,5.88
2022-11-16T14:35:30.812Z,9.73
2022-11-16T14:38:33.897Z,8.40
2022-11-16T14:41:04.737Z,8.48
2022-11-16T14:43:55.141Z,6.75
2022-11-16T14:46:26.410Z,8.52
2022-11-16T14:48:56.825Z,7.60
2022-11-16T14:51:44.280Z,11.15
2022-11-16T14:54:32.647Z,9.75
2022-11-16T14:57:05.974Z,9.45
2022-11-16T14:59:34.350Z,11.82
2022-11-16T15:02:22.420Z,11.38
2022-11-16T15:04:53.020Z,11.00
2022-11-16T15:07:24.260Z,8.52
2022-11-16T15:09:55.413Z,11.05
2022-11-16T15:12:42.347Z,11.80
2022-11-16T15:15:19.264Z,10.55
2022-11-16T15:18:07.707Z,10.63
2022-11-16T15:20:38.448Z,12.80
2022-11-16T15:23:14.730Z,9.98
2022-11-16T15:25:56.834Z,10.77
2022-11-16T15:28:27.267Z,11.38
2022-11-16T15:30:58.625Z,11.00
2022-11-16T15:33:34.073Z,11.20
2022-11-16T15:36:22.405Z,10.63
2022-11-16T15:38:53.717Z,10.68
2022-11-16T15:41:23.459Z,11.95
2022-11-16T15:44:13.481Z,9.90
2022-11-16T15:46:45.373Z,11.82
2022-11-16T15:49:20.053Z,13.93
2022-11-16T15:51:48.179Z,10.57
2022-11-16T15:54:25.567Z,11.48
2022-11-16T15:56:56.861Z,10.52
2022-11-16T15:59:33.924Z,12.85
2022-11-16T16:02:03.408Z,12.40
2022-11-16T16:04:31.619Z,13.00
2022-11-16T16:07:00.792Z,23.65
2022-11-16T16:09:28.826Z,23.45
2022-11-16T16:12:23.338Z,18.50
2022-11-16T16:14:52.874Z,18.08
2022-11-16T16:17:31.659Z,18.80
2022-11-16T16:20:03.468Z,17.13
2022-11-16T16:22:38.327Z,15.55
2022-11-16T16:25:07.553Z,16.23
2022-11-16T16:27:41.721Z,19.58
2022-11-16T16:30:14.825Z,16.30
2022-11-16T16:32:47.632Z,20.13
2022-11-16T16:35:21.155Z,36.03
2022-11-16T16:37:50.651Z,38.58
2022-11-16T16:40:19.388Z,22.88
2022-11-16T16:42:51.009Z,22.80
2022-11-16T16:45:33.720Z,18.85
2022-11-16T16:48:01.556Z,17.95
2022-11-16T16:50:29.453Z,22.48
2022-11-16T16:52:57.244Z,29.52
2022-11-16T16:55:25.022Z,24.13
2022-11-16T16:57:56.639Z,22.45
2022-11-16T17:00:25.245Z,19.75
2022-11-16T17:02:53.000Z,20.13
2022-11-16T17:05:20.766Z,20.75
2022-11-16T17:07:48.629Z,23.65
2022-11-16T17:10:17.393Z,19.42
2022-11-16T17:12:46.420Z,26.95
2022-11-16T17:15:19.224Z,19.42
2022-11-16T17:17:47.642Z,24.35
2022-11-16T17:20:16.583Z,19.17
2022-11-16T17:22:44.497Z,21.20
2022-11-16T17:25:12.462Z,21.38
2022-11-16T17:27:40.457Z,24.65
2022-11-16T17:30:08.998Z,23.40
2022-11-16T17:32:36.783Z,22.25
2022-11-16T17:35:04.857Z,19.67
2022-11-16T17:37:32.762Z,20.63
2022-11-16T17:40:00.475Z,23.00
2022-11-16T17:42:28.221Z,23.95
2022-11-16T17:44:56.008Z,23.00
2022-11-16T17:47:23.788Z,25.67
2022-11-16T17:49:51.521Z,18.88
2022-11-16T17:52:19.238Z,25.38
2022-11-16T17:54:47.034Z,22.98
2022-11-16T17:57:15.281Z,20.95
2022-11-16T17:59:43.026Z,18.23
2022-11-16T18:02:11.573Z,25.48
2022-11-16T18:04:39.381Z,23.42
2022-11-16T18:07:07.361Z,24.75
2022-11-16T18:09:35.137Z,24.45
2022-11-16T18:12:03.322Z,22.83
2022-11-16T18:14:31.062Z,27.98
2022-11-16T18:16:58.819Z,20.70
2022-11-16T18:19:26.608Z,20.00
2022-11-16T18:21:54.409Z,22.23
2022-11-16T18:24:22.380Z,25.13
2022-11-16T18:26:50.206Z,25.55
2022-11-16T18:29:19.330Z,26.08
2022-11-16T18:31:47.190Z,22.88
2022-11-16T18:34:15.185Z,22.00
2022-11-16T18:36:43.077Z,22.85
2022-11-16T18:39:10.851Z,23.73
2022-11-16T18:41:48.772Z,41.15
2022-11-16T18:44:21.209Z,111.03
2022-11-16T18:46:48.998Z,54.92
2022-11-16T18:49:16.841Z,46.58
2022-11-16T18:51:44.721Z,151.15
2022-11-16T18:54:12.949Z,149.90
2022-11-16T18:56:40.730Z,78.65
2022-11-16T18:59:08.428Z,93.05
2022-11-16T19:01:36.221Z,30.48
2022-11-16T19:04:04.241Z,31.02
2022-11-16T19:06:32.553Z,35.92
2022-11-16T19:09:00.461Z,24.83
2022-11-16T19:11:28.770Z,21.90
2022-11-16T19:14:07.839Z,24.27
2022-11-16T19:16:36.760Z,26.42
2022-11-16T19:19:05.217Z,23.48
2022-11-16T19:21:33.141Z,27.73
2022-11-16T19:24:00.968Z,25.33
2022-11-16T19:26:28.987Z,28.80
2022-11-16T19:28:57.111Z,31.13
2022-11-16T19:31:30.323Z,28.25
2022-11-16T19:34:04.740Z,28.23
2022-11-16T19:36:34.353Z,28.25
2022-11-16T19:39:02.611Z,24.98
2022-11-16T19:41:30.397Z,28.67
2022-11-16T19:44:00.364Z,27.63
2022-11-16T19:46:30.533Z,26.33
2022-11-16T19:48:59.341Z,31.25
2022-11-16T19:51:31.732Z,28.73
2022-11-16T19:54:01.519Z,23.52
2022-11-16T19:56:29.658Z,27.10
2022-11-16T19:58:57.661Z,27.98
2022-11-16T20:01:29.171Z,24.73
2022-11-16T20:03:59.694Z,27.10
2022-11-16T20:06:32.797Z,23.35
2022-11-16T20:09:04.164Z,23.35
2022-11-16T20:11:36.420Z,26.55
2022-11-16T20:14:06.054Z,22.48
2022-11-16T20:16:39.124Z,27.73
2022-11-16T20:19:11.231Z,26.00
2022-11-16T20:21:43.102Z,24.70
2022-11-16T20:24:15.933Z,31.30
2022-11-16T20:26:47.341Z,26.67
2022-11-16T20:29:17.220Z,28.85
2022-11-16T20:31:46.199Z,25.05
2022-11-16T20:34:17.764Z,27.55
2022-11-16T20:36:47.103Z,24.83
2022-11-16T20:39:18.186Z,22.58
2022-11-16T20:41:46.937Z,24.20
2022-11-16T20:44:22.450Z,23.83
2022-11-16T20:46:52.990Z,24.85
2022-11-16T20:49:21.209Z,23.08
2022-11-16T20:51:51.400Z,26.05
2022-11-16T20:54:24.834Z,28.05
2022-11-16T20:56:53.432Z,26.23
2022-11-16T20:59:21.524Z,30.27
2022-11-16T21:01:52.521Z,24.63
2022-11-16T21:04:20.980Z,26.15
2022-11-16T21:06:50.029Z,23.13
2022-11-16T21:09:22.901Z,26.70
2022-11-16T21:12:09.432Z,24.58
2022-11-16T21:14:37.618Z,27.02
2022-11-16T21:17:05.725Z,25.15
2022-11-16T21:19:33.838Z,26.92
2022-11-16T21:22:01.710Z,24.65
2022-11-16T21:24:31.764Z,31.08
2022-11-16T21:26:59.680Z,23.55
2022-11-16T21:29:28.349Z,27.35
2022-11-16T21:31:56.102Z,28.08
2022-11-16T21:34:24.624Z,24.05
2022-11-16T21:36:52.444Z,26.35
2022-11-16T21:39:20.182Z,23.70
2022-11-16T21:41:48.074Z,28.08
2022-11-16T21:44:15.943Z,24.98
2022-11-16T21:46:43.828Z,25.23
2022-11-16T21:49:11.713Z,31.08
2022-11-16T21:51:39.470Z,25.85
2022-11-16T21:54:07.278Z,27.83
2022-11-16T21:56:35.093Z,24.30
2022-11-16T21:59:02.879Z,29.75
2022-11-16T22:01:50.684Z,29.40
2022-11-16T22:04:37.190Z,30.15
2022-11-16T22:07:23.505Z,31.13
2022-11-16T22:09:51.308Z,28.35
2022-11-16T22:12:19.030Z,29.60
2022-11-16T22:14:46.781Z,30.90
2022-11-16T22:17:14.574Z,31.58
2022-11-16T22:19:42.409Z,33.55
2022-11-16T22:22:10.261Z,31.90
2022-11-16T22:24:38.053Z,32.35
2022-11-16T22:27:05.898Z,26.60
2022-11-16T22:29:33.767Z,32.10
2022-11-16T22:32:01.550Z,31.98
2022-11-16T22:34:29.295Z,29.83
2022-11-16T22:36:57.073Z,29.70
2022-11-16T22:39:24.847Z,27.38
2022-11-16T22:41:52.709Z,30.30
2022-11-16T22:44:20.427Z,28.63
2022-11-16T22:46:49.608Z,26.10
2022-11-16T22:49:17.433Z,25.75
2022-11-16T22:51:45.940Z,27.60
2022-11-16T22:54:15.556Z,22.23
2022-11-16T22:56:43.809Z,23.50
2022-11-16T22:59:11.577Z,22.70
2022-11-16T23:01:39.400Z,20.92
2022-11-16T23:04:07.130Z,19.55
2022-11-16T23:06:34.837Z,17.73
2022-11-16T23:09:02.632Z,21.65
2022-11-16T23:11:49.055Z,17.70
2022-11-16T23:14:36.713Z,17.77
2022-11-16T23:17:06.129Z,13.98
2022-11-16T23:19:53.258Z,19.38
2022-11-16T23:22:40.734Z,15.95
2022-11-16T23:25:30.287Z,14.75
2022-11-16T23:28:10.290Z,13.35
2022-11-16T23:30:38.085Z,13.75
2022-11-16T23:33:06.254Z,16.23
2022-11-16T23:35:34.012Z,14.57
2022-11-16T23:38:10.556Z,14.00
2022-11-16T23:40:39.950Z,15.60
2022-11-16T23:43:28.928Z,12.50
2022-11-16T23:45:56.733Z,14.93
2022-11-16T23:48:24.498Z,15.93
2022-11-16T23:50:52.320Z,14.40
2022-11-16T23:53:20.118Z,14.05
2022-11-16T23:55:47.933Z,19.23
2022-11-16T23:58:15.743Z,21.05
